Time;durP1;ratioP1;P1;durP2;ratioP2;P2;SDS_P1;SDS_P2;PMS_P1;PMS_P2;Temp;Humidity;BMP_temperature;BMP_pressure;BME280_temperature;BME280_humidity;BME280_pressure;Samples;Min_cycle;Max_cycle;Signal;HPM_P1;HPM_P2
2023/07/06 00:02:25;;;;;;;16.55;6.72;;;;;;;;;;6122783;23;20018;-92
2023/07/06 00:04:59;;;;;;;18.15;6.28;;;;;;;;;;6122261;23;20022;-92
2023/07/06 00:07:26;;;;;;;18.20;6.00;;;;;;;;;;6123074;23;20093;-90
2023/07/06 00:10:06;;;;;;;14.07;6.20;;;;;;;;;;6123654;23;20104;-92
2023/07/06 00:12:34;;;;;;;17.05;6.88;;;;;;;;;;6124831;23;20029;-92
2023/07/06 00:15:09;;;;;;;12.50;6.07;;;;;;;;;;6125039;23;20021;-91
2023/07/06 00:17:38;;;;;;;15.00;6.28;;;;;;;;;;6125011;23;20025;-92
2023/07/06 00:20:10;;;;;;;16.50;6.85;;;;;;;;;;6124037;23;20057;-92
2023/07/06 00:22:44;;;;;;;13.40;6.43;;;;;;;;;;6123949;23;20045;-92
2023/07/06 00:25:12;;;;;;;16.38;6.55;;;;;;;;;;6124115;23;20031;-92
2023/07/06 00:27:46;;;;;;;13.05;6.63;;;;;;;;;;6124820;23;20065;-92
2023/07/06 00:30:15;;;;;;;15.73;6.97;;;;;;;;;;6124615;23;20018;-92
2023/07/06 00:32:44;;;;;;;14.15;6.97;;;;;;;;;;6124352;23;20022;-92
2023/07/06 00:35:19;;;;;;;13.90;6.53;;;;;;;;;;6124319;23;20021;-91
2023/07/06 00:37:49;;;;;;;21.83;6.90;;;;;;;;;;6124244;23;20077;-92
2023/07/06 00:40:23;;;;;;;14.68;6.93;;;;;;;;;;6124563;23;20025;-93
2023/07/06 00:42:50;;;;;;;12.63;5.88;;;;;;;;;;6124858;23;20017;-92
2023/07/06 00:45:18;;;;;;;13.38;6.45;;;;;;;;;;6124153;23;20105;-93
2023/07/06 00:47:59;;;;;;;11.80;6.65;;;;;;;;;;6124135;23;20014;-91
2023/07/06 00:50:28;;;;;;;18.92;6.43;;;;;;;;;;6123526;23;20025;-92
2023/07/06 00:53:06;;;;;;;13.95;6.55;;;;;;;;;;6124361;23;20538;-92
2023/07/06 00:55:41;;;;;;;14.95;5.93;;;;;;;;;;6123905;23;20021;-92
2023/07/06 00:58:23;;;;;;;17.55;5.70;;;;;;;;;;6124968;23;20356;-92
2023/07/06 01:00:53;;;;;;;12.98;5.97;;;;;;;;;;6123831;23;20018;-91
2023/07/06 01:03:27;;;;;;;13.00;6.47;;;;;;;;;;6124291;23;20029;-91
2023/07/06 01:05:54;;;;;;;;;;;;;;;;;;6124281;23;20026;-92
2023/07/06 01:08:35;;;;;;;16.50;6.28;;;;;;;;;;6196229;23;19920;-93
2023/07/06 01:11:03;;;;;;;19.45;6.38;;;;;;;;;;6153178;23;20025;-93
2023/07/06 01:13:38;;;;;;;14.95;6.03;;;;;;;;;;6153362;23;20021;-92
2023/07/06 01:16:08;;;;;;;18.00;6.10;;;;;;;;;;6153164;23;20017;-92
2023/07/06 01:18:45;;;;;;;14.80;6.60;;;;;;;;;;6154443;23;20033;-92
2023/07/06 01:21:16;;;;;;;16.25;6.40;;;;;;;;;;6153146;23;20025;-93
2023/07/06 01:23:50;;;;;;;12.57;5.80;;;;;;;;;;6153626;23;20080;-92
2023/07/06 01:26:27;;;;;;;14.30;5.80;;;;;;;;;;6153704;23;20082;-92
2023/07/06 01:29:09;;;;;;;12.32;6.28;;;;;;;;;;6152927;23;20490;-93
2023/07/06 01:31:42;;;;;;;20.05;6.80;;;;;;;;;;6154564;23;20021;-92
2023/07/06 01:34:42;;;;;;;15.15;6.05;;;;;;;;;;6152959;23;20450;-92
2023/07/06 01:37:14;;;;;;;13.40;5.93;;;;;;;;;;6153205;23;20030;-93
2023/07/06 01:39:48;;;;;;;16.30;5.93;;;;;;;;;;6153826;23;20442;-92
2023/07/06 01:42:25;;;;;;;12.88;5.40;;;;;;;;;;6153538;23;20018;-92
2023/07/06 01:45:02;;;;;;;14.93;5.47;;;;;;;;;;6153754;23;20022;-92
2023/07/06 01:47:31;;;;;;;12.50;5.78;;;;;;;;;;6153739;23;20021;-91
2023/07/06 01:50:06;;;;;;;11.63;5.97;;;;;;;;;;6152787;23;20028;-92
2023/07/06 01:52:37;;;;;;;13.43;6.15;;;;;;;;;;6153358;23;20459;-92
2023/07/06 01:55:20;;;;;;;14.50;6.60;;;;;;;;;;6153409;23;20033;-92
2023/07/06 01:57:51;;;;;;;12.93;5.90;;;;;;;;;;6153004;23;20019;-93
2023/07/06 02:00:30;;;;;;;14.15;6.00;;;;;;;;;;6153297;23;20269;-92
2023/07/06 02:02:59;;;;;;;15.82;6.15;;;;;;;;;;6153655;23;20104;-92
2023/07/06 02:05:34;;;;;;;13.02;5.97;;;;;;;;;;6152967;23;20021;-92
2023/07/06 02:08:15;;;;;;;8.68;4.65;;;;;;;;;;6135514;23;20026;-92
2023/07/06 02:10:50;;;;;;;11.40;4.97;;;;;;;;;;6123366;23;20072;-92
2023/07/06 02:13:17;;;;;;;13.52;5.13;;;;;;;;;;6124893;23;20022;-93
2023/07/06 02:15:45;;;;;;;13.77;5.78;;;;;;;;;;6123813;23;20089;-92
2023/07/06 02:18:19;;;;;;;16.95;5.40;;;;;;;;;;6123808;23;20069;-92
2023/07/06 02:20:47;;;;;;;;;;;;;;;;;;6123249;23;20355;-93
2023/07/06 02:23:14;;;;;;;18.20;5.90;;;;;;;;;;6172383;23;19917;-93
2023/07/06 02:25:48;;;;;;;17.50;5.63;;;;;;;;;;6123470;23;20069;-92
2023/07/06 02:28:15;;;;;;;17.80;5.32;;;;;;;;;;6123975;23;20117;-92
2023/07/06 02:30:49;;;;;;;19.15;6.43;;;;;;;;;;6123339;23;20459;-92
2023/07/06 02:33:17;;;;;;;13.50;5.38;;;;;;;;;;6123760;23;20044;-92
2023/07/06 02:35:48;;;;;;;10.95;5.47;;;;;;;;;;6123289;23;20024;-92
2023/07/06 02:38:23;;;;;;;16.90;6.07;;;;;;;;;;6122645;23;20024;-92
2023/07/06 02:40:51;;;;;;;12.63;5.70;;;;;;;;;;6123369;23;20485;-92
2023/07/06 02:43:26;;;;;;;16.67;6.30;;;;;;;;;;6123816;23;20022;-92
2023/07/06 02:45:53;;;;;;;9.23;5.03;;;;;;;;;;6122804;23;20026;-92
2023/07/06 02:48:21;;;;;;;17.25;6.22;;;;;;;;;;6120987;23;20022;-92
2023/07/06 02:50:55;;;;;;;13.95;5.75;;;;;;;;;;6122835;23;20018;-92
2023/07/06 02:53:22;;;;;;;14.13;5.03;;;;;;;;;;6123784;23;20033;-91
2023/07/06 02:55:56;;;;;;;9.48;5.07;;;;;;;;;;6123056;23;20325;-92
2023/07/06 02:58:24;;;;;;;9.95;5.30;;;;;;;;;;6122851;23;20018;-92
2023/07/06 03:00:51;;;;;;;11.85;5.75;;;;;;;;;;6123268;23;20021;-92
2023/07/06 03:03:26;;;;;;;14.88;5.50;;;;;;;;;;6123547;23;20025;-93
2023/07/06 03:05:54;;;;;;;8.40;5.28;;;;;;;;;;6121952;23;20022;-92
2023/07/06 03:08:34;;;;;;;13.95;4.75;;;;;;;;;;6124126;23;20026;-92
2023/07/06 03:11:02;;;;;;;8.68;5.28;;;;;;;;;;6122552;23;20475;-93
2023/07/06 03:13:36;;;;;;;19.05;5.28;;;;;;;;;;6123246;23;20014;-92
2023/07/06 03:16:04;;;;;;;;;;;;;;;;;;6122679;23;20026;-93
2023/07/06 03:18:32;;;;;;;18.67;5.60;;;;;;;;;;6124253;23;20349;-92
2023/07/06 03:21:06;;;;;;;13.82;5.07;;;;;;;;;;6123245;23;20022;-91
2023/07/06 03:23:33;;;;;;;9.10;4.93;;;;;;;;;;6123011;23;20096;-92
2023/07/06 03:26:08;;;;;;;8.10;4.40;;;;;;;;;;6122091;23;20068;-92
2023/07/06 03:28:35;;;;;;;12.77;4.57;;;;;;;;;;6122360;23;20031;-91
2023/07/06 03:31:03;;;;;;;9.75;4.20;;;;;;;;;;6121488;23;20073;-90
2023/07/06 03:33:39;;;;;;;6.28;4.13;;;;;;;;;;6122736;23;20030;-90
2023/07/06 03:36:06;;;;;;;8.93;3.90;;;;;;;;;;6123851;23;20093;-92
2023/07/06 03:38:40;;;;;;;8.45;3.65;;;;;;;;;;6122549;23;20025;-89
2023/07/06 03:41:07;;;;;;;9.07;4.38;;;;;;;;;;6121538;23;20341;-91
2023/07/06 03:43:35;;;;;;;;;;;;;;;;;;6124241;23;20463;-91
2023/07/06 03:46:09;;;;;;;7.28;3.80;;;;;;;;;;6168196;23;19980;-91
2023/07/06 03:48:37;;;;;;;10.05;4.38;;;;;;;;;;6121366;23;20029;-91
2023/07/06 03:51:04;;;;;;;10.35;3.38;;;;;;;;;;6121502;23;20403;-92
2023/07/06 03:53:38;;;;;;;8.63;3.88;;;;;;;;;;6122696;23;20317;-92
2023/07/06 03:56:07;;;;;;;14.32;3.90;;;;;;;;;;6121565;23;20026;-92
2023/07/06 03:58:42;;;;;;;8.52;3.60;;;;;;;;;;6123996;23;20826;-91
2023/07/06 04:01:10;;;;;;;11.23;3.45;;;;;;;;;;6121707;23;20032;-91
2023/07/06 04:03:37;;;;;;;;;;;;;;;;;;6122440;23;20017;-91
2023/07/06 04:06:11;;;;;;;6.10;2.85;;;;;;;;;;6123349;23;19916;-91
2023/07/06 04:08:38;;;;;;;8.13;3.70;;;;;;;;;;6123015;23;20026;-91
2023/07/06 04:11:19;;;;;;;7.60;2.60;;;;;;;;;;6122391;23;20427;-91
2023/07/06 04:13:46;;;;;;;6.53;2.45;;;;;;;;;;6123181;23;20084;-91
2023/07/06 04:16:20;;;;;;;5.18;2.17;;;;;;;;;;6122276;23;20073;-90
2023/07/06 04:18:47;;;;;;;;;;;;;;;;;;6122845;23;20059;-92
2023/07/06 04:21:18;;;;;;;10.30;2.75;;;;;;;;;;6123426;23;19964;-91
2023/07/06 04:23:52;;;;;;;8.65;2.80;;;;;;;;;;6122355;23;20014;-92
2023/07/06 04:26:21;;;;;;;6.75;2.97;;;;;;;;;;6121055;23;20057;-91
2023/07/06 04:29:02;;;;;;;8.15;2.38;;;;;;;;;;6122194;23;20033;-91
2023/07/06 04:31:36;;;;;;;7.55;2.33;;;;;;;;;;6122855;23;20018;-92
2023/07/06 04:34:10;;;;;;;9.82;2.20;;;;;;;;;;6122702;23;20383;-92
2023/07/06 04:36:39;;;;;;;9.52;2.50;;;;;;;;;;6122709;23;20025;-92
2023/07/06 04:39:08;;;;;;;4.85;2.13;;;;;;;;;;6123555;23;20018;-91
2023/07/06 04:41:43;;;;;;;8.70;2.30;;;;;;;;;;6121945;23;20022;-90
2023/07/06 04:44:11;;;;;;;6.45;2.17;;;;;;;;;;6122308;23;20054;-92
2023/07/06 04:46:45;;;;;;;8.60;2.53;;;;;;;;;;6123520;23;20022;-92
2023/07/06 04:49:13;;;;;;;9.00;2.50;;;;;;;;;;6121940;23;20026;-89
2023/07/06 04:51:40;;;;;;;7.38;2.35;;;;;;;;;;6122155;23;20026;-91
2023/07/06 04:54:14;;;;;;;6.55;2.25;;;;;;;;;;6122008;23;20022;-91
2023/07/06 04:56:41;;;;;;;11.88;2.28;;;;;;;;;;6122173;23;20018;-91
2023/07/06 04:59:16;;;;;;;10.85;2.65;;;;;;;;;;6124325;23;20018;-92
2023/07/06 05:01:44;;;;;;;9.27;2.38;;;;;;;;;;6123162;23;20593;-91
2023/07/06 05:04:11;;;;;;;8.35;2.38;;;;;;;;;;6123865;23;20021;-92
2023/07/06 05:06:45;;;;;;;6.90;2.35;;;;;;;;;;6124142;23;20014;-91
2023/07/06 05:09:18;;;;;;;8.30;2.75;;;;;;;;;;6124670;23;20028;-91
2023/07/06 05:11:53;;;;;;;5.07;1.60;;;;;;;;;;6124615;23;20026;-93
2023/07/06 05:14:21;;;;;;;5.88;2.38;;;;;;;;;;6122940;23;20030;-91
2023/07/06 05:16:48;;;;;;;5.03;1.75;;;;;;;;;;6124437;23;20078;-92
2023/07/06 05:19:23;;;;;;;6.78;2.25;;;;;;;;;;6124663;23;20033;-92
2023/07/06 05:21:52;;;;;;;4.20;1.65;;;;;;;;;;6123509;23;20025;-91
2023/07/06 05:24:26;;;;;;;5.50;1.67;;;;;;;;;;6124500;23;20018;-92
2023/07/06 05:26:53;;;;;;;4.35;1.63;;;;;;;;;;6124105;23;20085;-92
2023/07/06 05:29:27;;;;;;;5.22;1.73;;;;;;;;;;6124235;23;20026;-90
2023/07/06 05:31:54;;;;;;;3.33;1.77;;;;;;;;;;6123926;23;20026;-91
2023/07/06 05:34:21;;;;;;;5.35;1.98;;;;;;;;;;6122936;23;20675;-91
2023/07/06 05:36:55;;;;;;;4.75;1.70;;;;;;;;;;6124531;23;20022;-90
2023/07/06 05:39:22;;;;;;;7.57;1.92;;;;;;;;;;6122985;23;20375;-92
2023/07/06 05:41:56;;;;;;;6.53;1.45;;;;;;;;;;6123883;23;20018;-92
2023/07/06 05:44:24;;;;;;;4.75;1.92;;;;;;;;;;6123842;23;20073;-90
2023/07/06 05:46:52;;;;;;;6.40;2.00;;;;;;;;;;6124004;23;20026;-91
2023/07/06 05:49:26;;;;;;;4.82;1.92;;;;;;;;;;6124600;23;20026;-91
2023/07/06 05:51:54;;;;;;;6.55;1.60;;;;;;;;;;6125258;23;20364;-92
2023/07/06 05:54:28;;;;;;;5.32;1.60;;;;;;;;;;6123657;23;20090;-92
2023/07/06 05:56:55;;;;;;;9.13;1.98;;;;;;;;;;6123827;23;20391;-91
2023/07/06 05:59:24;;;;;;;3.70;1.40;;;;;;;;;;6123727;23;20026;-92
2023/07/06 06:01:58;;;;;;;8.48;1.70;;;;;;;;;;6123231;23;20077;-92
2023/07/06 06:04:26;;;;;;;6.35;1.63;;;;;;;;;;6123608;23;20045;-91
2023/07/06 06:07:06;;;;;;;6.78;1.92;;;;;;;;;;6123547;23;20395;-92
2023/07/06 06:09:40;;;;;;;7.40;2.08;;;;;;;;;;6158237;23;20025;-91
2023/07/06 06:12:18;;;;;;;7.05;1.98;;;;;;;;;;6159220;23;20017;-91
2023/07/06 06:14:47;;;;;;;3.97;1.58;;;;;;;;;;6157557;23;20054;-91
2023/07/06 06:17:21;;;;;;;6.97;1.80;;;;;;;;;;6159176;23;20021;-91
2023/07/06 06:19:49;;;;;;;6.70;1.52;;;;;;;;;;6158010;23;20331;-92
2023/07/06 06:22:16;;;;;;;;;;;;;;;;;;6183354;23;20521;-92
2023/07/06 06:24:50;;;;;;;5.85;1.55;;;;;;;;;;6159019;23;20533;-92
2023/07/06 06:27:19;;;;;;;3.28;1.48;;;;;;;;;;6157247;23;20314;-92
2023/07/06 06:29:53;;;;;;;2.50;0.98;;;;;;;;;;6158685;23;20072;-91
2023/07/06 06:32:21;;;;;;;3.70;1.20;;;;;;;;;;6156853;23;20036;-92
2023/07/06 06:34:49;;;;;;;3.40;1.00;;;;;;;;;;6156999;23;20032;-91
2023/07/06 06:37:23;;;;;;;2.30;1.08;;;;;;;;;;6158819;23;20021;-91
2023/07/06 06:39:51;;;;;;;2.33;1.10;;;;;;;;;;6156310;23;20021;-91
2023/07/06 06:42:19;;;;;;;4.25;1.45;;;;;;;;;;6156897;23;20036;-91
2023/07/06 06:44:57;;;;;;;5.35;1.40;;;;;;;;;;6158605;23;20473;-91
2023/07/06 06:47:24;;;;;;;1.95;1.17;;;;;;;;;;6156728;23;20028;-92
2023/07/06 06:49:58;;;;;;;6.35;1.40;;;;;;;;;;6158748;23;20076;-91
2023/07/06 06:52:26;;;;;;;1.88;1.25;;;;;;;;;;6156504;23;20013;-91
2023/07/06 06:54:54;;;;;;;4.78;1.63;;;;;;;;;;6156477;23;20111;-91
2023/07/06 06:57:30;;;;;;;6.00;1.63;;;;;;;;;;6158713;23;20071;-92
2023/07/06 06:59:58;;;;;;;4.63;1.67;;;;;;;;;;6156475;23;20045;-91
2023/07/06 07:02:33;;;;;;;6.80;2.05;;;;;;;;;;6158102;23;20013;-92
2023/07/06 07:05:00;;;;;;;3.13;1.90;;;;;;;;;;6156888;23;20490;-91
2023/07/06 07:07:28;;;;;;;4.53;1.90;;;;;;;;;;6155163;23;20021;-91
2023/07/06 07:10:09;;;;;;;3.45;2.00;;;;;;;;;;6158157;23;20454;-91
2023/07/06 07:12:40;;;;;;;8.18;1.95;;;;;;;;;;6157076;23;20029;-91
2023/07/06 07:15:14;;;;;;;5.68;1.95;;;;;;;;;;6157662;23;20532;-91
2023/07/06 07:17:44;;;;;;;6.13;2.05;;;;;;;;;;6156118;23;20115;-91
2023/07/06 07:20:13;;;;;;;5.82;2.00;;;;;;;;;;6157292;23;20327;-92
2023/07/06 07:22:47;;;;;;;6.05;2.05;;;;;;;;;;6158207;23;20099;-91
2023/07/06 07:25:17;;;;;;;9.82;2.00;;;;;;;;;;6156735;23;20021;-92
2023/07/06 07:27:54;;;;;;;5.22;2.03;;;;;;;;;;6158228;23;20087;-90
2023/07/06 07:30:21;;;;;;;3.95;1.90;;;;;;;;;;6156862;23;20017;-90
2023/07/06 07:32:50;;;;;;;5.72;1.85;;;;;;;;;;6182107;23;20048;-91
2023/07/06 07:35:26;;;;;;;3.35;2.00;;;;;;;;;;6158089;23;20025;-92
2023/07/06 07:37:53;;;;;;;11.35;2.25;;;;;;;;;;6156494;23;20023;-91
2023/07/06 07:40:22;;;;;;;7.20;2.40;;;;;;;;;;6182769;23;20052;-92
2023/07/06 07:42:56;;;;;;;5.07;2.15;;;;;;;;;;6157878;23;20083;-91
2023/07/06 07:45:23;;;;;;;5.75;2.35;;;;;;;;;;6182711;23;20028;-92
2023/07/06 07:47:57;;;;;;;3.97;2.25;;;;;;;;;;6157331;23;20021;-90
2023/07/06 07:50:24;;;;;;;4.70;2.42;;;;;;;;;;6157062;23;20072;-90
2023/07/06 07:52:58;;;;;;;6.18;2.65;;;;;;;;;;6181783;23;20017;-92
2023/07/06 07:55:25;;;;;;;4.55;2.42;;;;;;;;;;6156279;23;20120;-91
2023/07/06 07:57:53;;;;;;;12.55;2.90;;;;;;;;;;6155890;23;20025;-91
2023/07/06 08:00:28;;;;;;;7.53;2.42;;;;;;;;;;6158234;23;20021;-92
2023/07/06 08:02:55;;;;;;;9.15;2.85;;;;;;;;;;6182258;23;20442;-91
2023/07/06 08:05:23;;;;;;;8.60;2.65;;;;;;;;;;6156905;23;20350;-91
2023/07/06 08:08:10;;;;;;;14.40;3.20;;;;;;;;;;6142805;23;20077;-91
2023/07/06 08:10:45;;;;;;;8.73;2.55;;;;;;;;;;6122492;23;20053;-91
2023/07/06 08:13:20;;;;;;;11.60;2.45;;;;;;;;;;6122392;23;20045;-91
2023/07/06 08:15:48;;;;;;;8.77;2.55;;;;;;;;;;6124013;23;20018;-91
2023/07/06 08:18:24;;;;;;;7.95;2.60;;;;;;;;;;6121727;23;20333;-91
2023/07/06 08:20:56;;;;;;;9.13;2.53;;;;;;;;;;6122192;23;20052;-92
2023/07/06 08:23:52;;;;;;;8.25;2.60;;;;;;;;;;6122125;23;20073;-91
2023/07/06 08:26:20;;;;;;;6.35;2.53;;;;;;;;;;6121311;23;20081;-91
2023/07/06 08:28:54;;;;;;;6.55;2.45;;;;;;;;;;6121763;23;20026;-90
2023/07/06 08:31:24;;;;;;;5.65;2.38;;;;;;;;;;6122084;23;20018;-91
2023/07/06 08:33:52;;;;;;;3.85;2.30;;;;;;;;;;6124898;23;20022;-91
2023/07/06 08:36:27;;;;;;;8.38;2.25;;;;;;;;;;6123054;23;20022;-91
2023/07/06 08:38:56;;;;;;;7.55;2.80;;;;;;;;;;6123483;23;20022;-92
2023/07/06 08:41:30;;;;;;;7.65;2.78;;;;;;;;;;6123448;23;20538;-90
2023/07/06 08:44:04;;;;;;;6.78;2.83;;;;;;;;;;6123466;23;20022;-91
2023/07/06 08:46:39;;;;;;;7.72;2.15;;;;;;;;;;6122715;23;20089;-92
2023/07/06 08:49:18;;;;;;;9.50;2.03;;;;;;;;;;6125569;23;20400;-92
2023/07/06 08:51:56;;;;;;;9.27;2.15;;;;;;;;;;6124200;23;20019;-93
2023/07/06 08:54:24;;;;;;;7.75;2.40;;;;;;;;;;6123901;23;20030;-92
2023/07/06 08:56:52;;;;;;;9.60;2.55;;;;;;;;;;6123924;23;20021;-90
2023/07/06 08:59:32;;;;;;;9.68;2.45;;;;;;;;;;6124514;23;20022;-92
2023/07/06 09:02:08;;;;;;;6.55;2.35;;;;;;;;;;6124374;23;20022;-91
2023/07/06 09:04:42;;;;;;;6.13;2.45;;;;;;;;;;6124078;23;20018;-93
2023/07/06 09:07:12;;;;;;;9.05;2.70;;;;;;;;;;6123793;23;20018;-92
2023/07/06 09:09:44;;;;;;;5.13;2.60;;;;;;;;;;6125643;23;20029;-93
2023/07/06 09:12:31;;;;;;;6.45;2.38;;;;;;;;;;6124836;23;20026;-92
2023/07/06 09:14:59;;;;;;;4.82;2.45;;;;;;;;;;6124093;23;20018;-92
2023/07/06 09:17:33;;;;;;;9.25;2.80;;;;;;;;;;6124593;23;20026;-93
2023/07/06 09:20:02;;;;;;;11.07;2.88;;;;;;;;;;6124213;23;20022;-92
2023/07/06 09:22:29;;;;;;;7.88;2.30;;;;;;;;;;6123992;23;20026;-93
2023/07/06 09:25:05;;;;;;;6.95;2.67;;;;;;;;;;6124284;23;20036;-93
2023/07/06 09:27:32;;;;;;;7.40;2.75;;;;;;;;;;6123520;23;20408;-92
2023/07/06 09:30:07;;;;;;;8.43;2.55;;;;;;;;;;6123226;23;20034;-93
2023/07/06 09:32:35;;;;;;;7.03;2.42;;;;;;;;;;6123790;23;20503;-92
2023/07/06 09:35:13;;;;;;;9.68;2.50;;;;;;;;;;6123973;23;20025;-92
2023/07/06 09:37:44;;;;;;;4.95;2.33;;;;;;;;;;6123484;23;20014;-92
2023/07/06 09:40:19;;;;;;;10.07;2.97;;;;;;;;;;6123692;23;20025;-94
2023/07/06 09:43:03;;;;;;;8.90;2.83;;;;;;;;;;6123450;23;20070;-91
2023/07/06 09:45:37;;;;;;;8.55;2.70;;;;;;;;;;6123265;23;20021;-91
2023/07/06 09:48:07;;;;;;;10.23;3.22;;;;;;;;;;6124205;23;20069;-92
2023/07/06 09:50:36;;;;;;;8.73;3.20;;;;;;;;;;6123882;23;20018;-93
2023/07/06 09:53:14;;;;;;;4.82;2.47;;;;;;;;;;6124189;23;20028;-92
2023/07/06 09:55:41;;;;;;;7.93;3.30;;;;;;;;;;6123707;23;20135;-92
2023/07/06 09:58:24;;;;;;;9.40;3.20;;;;;;;;;;6123702;23;20026;-92
2023/07/06 10:00:56;;;;;;;11.88;2.90;;;;;;;;;;6123554;23;20018;-92
2023/07/06 10:03:33;;;;;;;7.93;2.65;;;;;;;;;;6123086;23;20387;-92
2023/07/06 10:06:03;;;;;;;12.98;3.13;;;;;;;;;;6123927;23;20026;-92
2023/07/06 10:08:53;;;;;;;9.02;2.83;;;;;;;;;;6123927;23;20018;-92
2023/07/06 10:11:42;;;;;;;6.47;2.67;;;;;;;;;;6123379;23;20348;-92
2023/07/06 10:14:16;;;;;;;18.33;3.20;;;;;;;;;;6122132;23;20029;-92
2023/07/06 10:16:51;;;;;;;4.93;2.47;;;;;;;;;;6124817;23;20022;-93
2023/07/06 10:19:32;;;;;;;15.00;3.08;;;;;;;;;;6122718;23;20085;-91
2023/07/06 10:22:06;;;;;;;15.40;3.47;;;;;;;;;;6123541;23;20085;-92
2023/07/06 10:24:40;;;;;;;6.18;2.60;;;;;;;;;;6123630;23;20025;-92
2023/07/06 10:27:12;;;;;;;9.73;3.10;;;;;;;;;;6123133;23;20025;-92
2023/07/06 10:29:45;;;;;;;7.55;3.28;;;;;;;;;;6123633;23;20018;-92
2023/07/06 10:32:24;;;;;;;14.98;3.67;;;;;;;;;;6122544;23;20487;-92
2023/07/06 10:35:06;;;;;;;8.70;3.03;;;;;;;;;;6123189;23;20025;-93
2023/07/06 10:37:44;;;;;;;12.65;2.90;;;;;;;;;;6124589;23;20060;-93
2023/07/06 10:40:20;;;;;;;8.38;3.05;;;;;;;;;;6122592;23;20018;-93
2023/07/06 10:43:17;;;;;;;11.98;3.25;;;;;;;;;;6122787;23;20025;-92
2023/07/06 10:45:52;;;;;;;11.40;3.17;;;;;;;;;;6123632;23;20021;-92
2023/07/06 10:48:19;;;;;;;19.15;2.90;;;;;;;;;;6123956;23;20082;-93
2023/07/06 10:51:12;;;;;;;17.10;3.20;;;;;;;;;;6123802;23;20022;-92
2023/07/06 10:53:40;;;;;;;14.50;2.50;;;;;;;;;;6123663;23;20025;-92
2023/07/06 10:56:17;;;;;;;9.93;2.50;;;;;;;;;;6123036;23;20017;-93
2023/07/06 10:58:59;;;;;;;18.05;3.00;;;;;;;;;;6123084;23;20025;-93
2023/07/06 11:01:33;;;;;;;;;;;;;;;;;;6123635;23;20025;-93
2023/07/06 11:04:02;;;;;;;10.50;2.40;;;;;;;;;;6172932;23;19917;-92
2023/07/06 11:06:42;;;;;;;10.13;2.60;;;;;;;;;;6124492;23;20017;-93
2023/07/06 11:09:17;;;;;;;10.10;2.40;;;;;;;;;;6123628;23;20022;-92
2023/07/06 11:11:54;;;;;;;9.20;2.28;;;;;;;;;;6122912;23;20069;-92
2023/07/06 11:14:31;;;;;;;6.32;2.30;;;;;;;;;;6123746;23;20069;-92
2023/07/06 11:17:20;;;;;;;7.57;2.63;;;;;;;;;;6123529;23;20081;-92
2023/07/06 11:19:58;;;;;;;14.13;2.83;;;;;;;;;;6123206;23;20032;-93
2023/07/06 11:22:25;;;;;;;10.50;2.53;;;;;;;;;;6122746;23;20036;-92
2023/07/06 11:25:03;;;;;;;10.95;2.22;;;;;;;;;;6123640;23;20399;-93
2023/07/06 11:27:33;;;;;;;10.75;2.38;;;;;;;;;;6122975;23;20021;-92
2023/07/06 11:30:13;;;;;;;9.80;2.40;;;;;;;;;;6123350;23;20021;-93
2023/07/06 11:32:51;;;;;;;9.23;2.45;;;;;;;;;;6122848;23;20351;-92
2023/07/06 11:35:28;;;;;;;11.02;2.08;;;;;;;;;;6122747;23;20018;-93
2023/07/06 11:38:05;;;;;;;16.70;2.38;;;;;;;;;;6123323;23;20021;-93
2023/07/06 11:40:48;;;;;;;11.23;3.08;;;;;;;;;;6122813;23;20032;-94
2023/07/06 11:43:27;;;;;;;9.63;2.55;;;;;;;;;;6122827;23;20097;-93
2023/07/06 11:46:08;;;;;;;9.40;2.47;;;;;;;;;;6122963;23;20018;-94
2023/07/06 11:49:04;;;;;;;8.98;2.10;;;;;;;;;;6122535;23;20025;-94
2023/07/06 11:51:34;;;;;;;6.72;2.20;;;;;;;;;;6122898;23;20018;-93
2023/07/06 11:54:29;;;;;;;12.05;3.03;;;;;;;;;;6123551;23;20041;-93
2023/07/06 11:59:55;;;;;;;6.00;2.42;;;;;;;;;;6124117;23;19921;-93
2023/07/06 12:02:27;;;;;;;10.85;2.30;;;;;;;;;;6123198;23;20105;-93
2023/07/06 12:05:02;;;;;;;5.70;1.90;;;;;;;;;;6123383;23;20020;-93
2023/07/06 12:07:32;;;;;;;20.20;3.22;;;;;;;;;;6123685;23;20456;-92
2023/07/06 12:10:03;;;;;;;5.30;2.47;;;;;;;;;;6125376;23;20018;-91
2023/07/06 12:12:37;;;;;;;;;;;;;;;;;;6123924;23;20018;-92
2023/07/06 12:15:06;;;;;;;8.32;2.83;;;;;;;;;;6173761;23;19925;-91
2023/07/06 12:17:43;;;;;;;10.27;3.50;;;;;;;;;;6124442;23;20105;-92
2023/07/06 12:20:11;;;;;;;10.00;3.67;;;;;;;;;;6124003;23;20093;-91
2023/07/06 12:22:56;;;;;;;8.15;3.10;;;;;;;;;;6124382;23;20018;-91
2023/07/06 12:25:25;;;;;;;9.65;3.30;;;;;;;;;;6124491;23;20080;-92
2023/07/06 12:28:00;;;;;;;10.32;3.10;;;;;;;;;;6123709;23;20073;-92
2023/07/06 12:30:33;;;;;;;10.85;2.78;;;;;;;;;;6123459;23;20029;-92
2023/07/06 12:33:10;;;;;;;10.98;2.90;;;;;;;;;;6124535;23;20049;-93
2023/07/06 12:35:38;;;;;;;13.60;3.65;;;;;;;;;;6124658;23;20026;-93
2023/07/06 12:38:09;;;;;;;7.93;3.40;;;;;;;;;;6124391;23;20077;-92
2023/07/06 12:40:43;;;;;;;3.13;2.08;;;;;;;;;;6124546;23;20022;-93
2023/07/06 12:43:17;;;;;;;9.60;2.05;;;;;;;;;;6124119;23;20174;-91
2023/07/06 12:45:52;;;;;;;4.88;1.75;;;;;;;;;;6124463;23;20022;-92
2023/07/06 12:48:23;;;;;;;3.35;1.98;;;;;;;;;;6123647;23;20088;-92
2023/07/06 12:50:59;;;;;;;4.40;1.83;;;;;;;;;;6125865;23;20085;-92
2023/07/06 12:53:26;;;;;;;5.50;1.60;;;;;;;;;;6125160;23;20030;-92
2023/07/06 12:56:01;;;;;;;5.43;1.45;;;;;;;;;;6124209;23;20014;-92
2023/07/06 12:58:34;;;;;;;4.18;1.63;;;;;;;;;;6123476;23;20514;-93
2023/07/06 13:01:09;;;;;;;9.13;2.38;;;;;;;;;;6124444;23;20724;-92
2023/07/06 13:03:46;;;;;;;6.10;1.70;;;;;;;;;;6123982;23;20499;-91
2023/07/06 13:06:21;;;;;;;5.38;1.70;;;;;;;;;;6124705;23;20014;-91
2023/07/06 13:09:03;;;;;;;3.58;1.40;;;;;;;;;;6124797;23;20076;-93
2023/07/06 13:11:38;;;;;;;6.28;1.70;;;;;;;;;;6124571;23;20029;-93
2023/07/06 13:14:17;;;;;;;4.40;1.80;;;;;;;;;;6124607;23;20026;-92
2023/07/06 13:16:45;;;;;;;3.72;1.90;;;;;;;;;;6124969;23;20471;-91
2023/07/06 13:19:19;;;;;;;3.65;1.83;;;;;;;;;;6124273;23;20026;-92
2023/07/06 13:21:48;;;;;;;3.53;1.83;;;;;;;;;;6124392;23;20084;-92
2023/07/06 13:24:23;;;;;;;9.07;1.95;;;;;;;;;;6125008;23;20041;-92
2023/07/06 13:26:50;;;;;;;8.18;2.03;;;;;;;;;;6123294;23;20081;-93
2023/07/06 13:29:27;;;;;;;6.00;2.38;;;;;;;;;;6125724;23;20460;-92
2023/07/06 13:31:57;;;;;;;5.15;2.83;;;;;;;;;;6123819;23;20026;-91
2023/07/06 13:34:31;;;;;;;5.53;1.98;;;;;;;;;;6124100;23;20069;-93
2023/07/06 13:36:59;;;;;;;8.00;2.72;;;;;;;;;;6124048;23;20032;-94
2023/07/06 13:39:33;;;;;;;13.15;2.33;;;;;;;;;;6124799;23;20440;-93
2023/07/06 13:42:00;;;;;;;12.00;2.70;;;;;;;;;;6124382;23;20018;-93
2023/07/06 13:44:28;;;;;;;7.20;2.58;;;;;;;;;;6124033;23;20014;-93
2023/07/06 13:47:02;;;;;;;15.07;3.17;;;;;;;;;;6123991;23;20092;-92
2023/07/06 13:49:30;;;;;;;6.00;2.00;;;;;;;;;;6124578;23;20493;-93
2023/07/06 13:52:03;;;;;;;8.48;2.70;;;;;;;;;;6124272;23;20026;-92
2023/07/06 13:54:30;;;;;;;6.57;2.40;;;;;;;;;;6124206;23;20018;-92
2023/07/06 13:56:58;;;;;;;7.32;2.83;;;;;;;;;;6124170;23;20026;-93
2023/07/06 13:59:33;;;;;;;6.18;2.50;;;;;;;;;;6123732;23;20467;-92
2023/07/06 14:02:02;;;;;;;7.40;3.05;;;;;;;;;;6124161;23;20064;-92
2023/07/06 14:04:41;;;;;;;11.60;3.15;;;;;;;;;;6123860;23;20014;-93
2023/07/06 14:07:09;;;;;;;9.73;2.63;;;;;;;;;;6123976;23;20049;-93
2023/07/06 14:09:50;;;;;;;6.85;2.70;;;;;;;;;;6124323;23;20022;-92
2023/07/06 14:12:24;;;;;;;8.55;2.70;;;;;;;;;;6123926;23;20021;-92
2023/07/06 14:14:51;;;;;;;8.48;2.45;;;;;;;;;;6124008;23;20073;-93
2023/07/06 14:17:25;;;;;;;8.48;2.63;;;;;;;;;;6123025;23;20456;-93
2023/07/06 14:19:52;;;;;;;5.32;2.20;;;;;;;;;;6123035;23;20028;-93
2023/07/06 14:22:32;;;;;;;7.38;2.30;;;;;;;;;;6124773;23;20048;-92
2023/07/06 14:25:20;;;;;;;5.80;2.00;;;;;;;;;;6123807;23;20459;-92
2023/07/06 14:27:50;;;;;;;4.35;1.98;;;;;;;;;;6123733;23;20084;-91
2023/07/06 14:30:27;;;;;;;3.97;1.88;;;;;;;;;;6124209;23;20096;-93
2023/07/06 14:32:55;;;;;;;8.57;2.08;;;;;;;;;;6123365;23;20022;-93
2023/07/06 14:35:23;;;;;;;4.90;1.77;;;;;;;;;;6123253;23;20025;-92
2023/07/06 14:37:57;;;;;;;6.10;2.05;;;;;;;;;;6123885;23;20048;-92
2023/07/06 14:40:24;;;;;;;8.30;2.15;;;;;;;;;;6123689;23;20043;-93
2023/07/06 14:42:58;;;;;;;4.60;2.30;;;;;;;;;;6124006;23;20065;-93
2023/07/06 14:45:25;;;;;;;8.75;2.47;;;;;;;;;;6123567;23;20463;-92
2023/07/06 14:47:52;;;;;;;5.70;2.17;;;;;;;;;;6123285;23;20077;-93
2023/07/06 14:50:26;;;;;;;7.35;2.58;;;;;;;;;;6123562;23;20080;-92
2023/07/06 14:52:54;;;;;;;8.20;2.60;;;;;;;;;;6123375;23;20054;-93
2023/07/06 14:55:29;;;;;;;7.85;2.67;;;;;;;;;;6123797;23;20026;-93
2023/07/06 14:58:00;;;;;;;12.52;3.10;;;;;;;;;;6123740;23;20464;-93
2023/07/06 15:00:33;;;;;;;12.70;3.10;;;;;;;;;;6123763;23;20080;-94
2023/07/06 15:03:03;;;;;;;18.30;3.65;;;;;;;;;;6123458;23;20100;-91
2023/07/06 15:05:32;;;;;;;13.75;3.72;;;;;;;;;;6123918;23;20068;-93
2023/07/06 15:08:28;;;;;;;11.75;3.05;;;;;;;;;;6127056;23;20049;-94
2023/07/06 15:11:16;;;;;;;15.57;3.80;;;;;;;;;;6159188;23;20025;-92
2023/07/06 15:13:50;;;;;;;18.52;3.40;;;;;;;;;;6159855;23;20107;-93
2023/07/06 15:16:18;;;;;;;15.23;3.72;;;;;;;;;;6157235;23;20024;-93
2023/07/06 15:18:45;;;;;;;20.27;4.07;;;;;;;;;;6158095;23;20021;-92